createdAt,value
2019-05-26T00:00:40.966Z,4.78
2019-05-26T00:03:11.544Z,5.30
2019-05-26T00:05:42.111Z,2.90
2019-05-26T00:08:12.646Z,5.55
2019-05-26T00:10:43.537Z,4.75
2019-05-26T00:13:14.071Z,3.83
2019-05-26T00:15:44.708Z,4.55
2019-05-26T00:18:15.275Z,4.87
2019-05-26T00:20:46.930Z,5.70
2019-05-26T00:23:17.562Z,3.85
2019-05-26T00:28:17.935Z,4.85
2019-05-26T00:30:48.521Z,5.08
2019-05-26T00:33:19.982Z,5.75
2019-05-26T00:35:50.594Z,4.53
2019-05-26T00:38:21.209Z,4.20
2019-05-26T00:40:51.767Z,4.40
2019-05-26T00:43:22.446Z,8.85
2019-05-26T00:45:52.963Z,5.03
2019-05-26T00:48:24.669Z,5.03
2019-05-26T00:50:57.438Z,3.30
2019-05-26T00:53:28.109Z,4.62
2019-05-26T00:58:28.113Z,5.97
2019-05-26T01:00:58.687Z,8.75
2019-05-26T01:03:29.291Z,7.55
2019-05-26T01:06:00.828Z,8.53
2019-05-26T01:08:31.482Z,3.80
2019-05-26T01:13:32.174Z,11.30
2019-05-26T01:18:32.131Z,5.70
2019-05-26T01:21:02.662Z,5.08
2019-05-26T01:23:33.274Z,4.60
2019-05-26T01:26:04.006Z,5.75
2019-05-26T01:31:03.945Z,4.85
2019-05-26T01:36:03.980Z,7.35
2019-05-26T01:38:34.808Z,7.65
2019-05-26T01:41:05.550Z,6.05
2019-05-26T01:46:06.243Z,5.75
2019-05-26T01:48:36.785Z,4.87
2019-05-26T01:51:07.349Z,7.58
2019-05-26T01:53:37.917Z,9.03
2019-05-26T01:56:08.432Z,5.97
2019-05-26T01:58:38.967Z,7.15
2019-05-26T02:01:09.520Z,5.15
2019-05-26T02:03:40.114Z,5.72
2019-05-26T02:06:10.701Z,6.55
2019-05-26T02:08:41.781Z,8.28
2019-05-26T02:11:15.599Z,8.78
2019-05-26T02:13:51.565Z,9.65
2019-05-26T02:16:22.027Z,9.43
2019-05-26T02:18:52.707Z,6.25
2019-05-26T02:21:23.262Z,7.62
2019-05-26T02:23:53.801Z,5.83
2019-05-26T02:26:24.491Z,9.93
2019-05-26T02:31:24.355Z,7.25
2019-05-26T02:33:54.847Z,9.70
2019-05-26T02:36:25.445Z,9.53
2019-05-26T02:41:29.821Z,8.88
2019-05-26T02:44:00.364Z,12.45
2019-05-26T02:46:30.985Z,8.95
2019-05-26T02:51:30.877Z,10.50
2019-05-26T02:54:01.448Z,8.63
2019-05-26T02:56:32.569Z,9.68
2019-05-26T02:59:03.113Z,13.05
2019-05-26T03:01:33.980Z,8.13
2019-05-26T03:04:04.828Z,10.90
2019-05-26T03:06:39.022Z,12.47
2019-05-26T03:09:22.120Z,10.95
2019-05-26T03:11:43.444Z,9.48
2019-05-26T03:14:17.576Z,9.33
2019-05-26T03:16:50.519Z,8.73
2019-05-26T03:19:21.139Z,12.35
2019-05-26T03:21:54.565Z,14.98
2019-05-26T03:24:27.896Z,9.95
2019-05-26T03:26:58.517Z,11.53
2019-05-26T03:31:58.594Z,7.72
2019-05-26T03:34:29.233Z,11.40
2019-05-26T03:39:43.422Z,10.68
2019-05-26T03:42:01.622Z,11.18
2019-05-26T03:44:32.299Z,10.63
2019-05-26T03:47:02.858Z,9.60
2019-05-26T03:49:33.430Z,9.63
2019-05-26T03:52:05.796Z,8.63
2019-05-26T03:54:36.404Z,14.28
2019-05-26T03:57:06.991Z,13.13
2019-05-26T03:59:37.532Z,13.25
2019-05-26T04:02:07.987Z,10.20
2019-05-26T04:04:38.495Z,10.82
2019-05-26T04:07:08.948Z,14.53
2019-05-26T04:09:40.396Z,9.80
2019-05-26T04:12:11.032Z,10.50
2019-05-26T04:17:11.012Z,14.45
2019-05-26T04:19:41.586Z,10.98
2019-05-26T04:22:12.042Z,14.07
2019-05-26T04:24:43.753Z,7.03
2019-05-26T04:27:14.321Z,10.65
2019-05-26T04:29:44.801Z,10.32
2019-05-26T04:32:15.291Z,14.20
2019-05-26T04:34:45.872Z,10.45
2019-05-26T04:37:16.487Z,13.65
2019-05-26T04:39:47.044Z,13.03
2019-05-26T04:42:17.611Z,15.90
2019-05-26T04:44:48.193Z,7.78
2019-05-26T04:49:48.255Z,10.63
2019-05-26T04:52:18.833Z,11.22
2019-05-26T04:57:21.738Z,10.95
2019-05-26T04:59:52.248Z,10.50
2019-05-26T05:02:22.810Z,9.38
2019-05-26T05:04:53.373Z,12.93
2019-05-26T05:07:28.066Z,13.18
2019-05-26T05:09:56.151Z,10.38
2019-05-26T05:12:26.691Z,13.75
2019-05-26T05:14:57.264Z,9.53
2019-05-26T05:17:27.874Z,12.20
2019-05-26T05:19:58.378Z,9.10
2019-05-26T05:22:29.014Z,9.30
2019-05-26T05:27:28.987Z,12.05
2019-05-26T05:29:59.519Z,8.85
2019-05-26T05:32:32.899Z,10.45
2019-05-26T05:35:02.573Z,6.83
2019-05-26T05:37:33.165Z,9.15
2019-05-26T05:40:04.107Z,7.70
2019-05-26T05:42:34.708Z,8.80
2019-05-26T05:45:05.625Z,10.05
2019-05-26T05:47:36.271Z,12.68
2019-05-26T05:50:07.478Z,5.90
2019-05-26T05:52:38.114Z,6.85
2019-05-26T05:57:38.218Z,6.03
2019-05-26T06:00:09.854Z,7.28
2019-05-26T06:02:40.459Z,8.20
2019-05-26T06:05:11.408Z,6.28
2019-05-26T06:07:42.067Z,6.05
2019-05-26T06:10:13.146Z,7.45
2019-05-26T06:12:43.810Z,7.40
2019-05-26T06:15:16.369Z,6.17
2019-05-26T06:17:48.284Z,7.00
2019-05-26T06:20:19.133Z,6.83
2019-05-26T06:25:19.115Z,6.37
2019-05-26T06:27:49.635Z,7.58
2019-05-26T06:30:21.286Z,4.15
2019-05-26T06:32:51.840Z,5.95
2019-05-26T06:35:24.816Z,4.67
2019-05-26T06:37:55.651Z,7.20
2019-05-26T06:40:27.088Z,6.17
2019-05-26T06:42:58.732Z,4.05
2019-05-26T06:47:59.854Z,3.25
2019-05-26T06:50:31.498Z,3.83
2019-05-26T06:53:02.166Z,4.20
2019-05-26T06:55:32.999Z,3.52
2019-05-26T07:00:32.958Z,3.75
2019-05-26T07:05:40.071Z,5.85
2019-05-26T07:10:40.251Z,3.75
2019-05-26T07:13:10.906Z,5.10
2019-05-26T07:18:11.269Z,4.50
2019-05-26T07:20:42.235Z,3.75
2019-05-26T07:23:13.142Z,3.47
2019-05-26T07:25:43.716Z,6.42
2019-05-26T07:28:14.640Z,3.30
2019-05-26T07:30:45.489Z,6.60
2019-05-26T07:33:16.284Z,4.70
2019-05-26T07:35:51.888Z,3.50
2019-05-26T07:38:22.630Z,3.67
2019-05-26T07:43:22.868Z,5.17
2019-05-26T07:45:53.531Z,3.60
2019-05-26T07:50:54.689Z,4.62
2019-05-26T07:53:25.431Z,4.33
2019-05-26T07:56:16.865Z,3.80
2019-05-26T07:58:47.628Z,3.52
2019-05-26T08:01:18.220Z,4.33
2019-05-26T08:03:48.900Z,3.65
2019-05-26T08:08:48.943Z,4.05
2019-05-26T08:13:51.122Z,7.33
2019-05-26T08:16:21.971Z,4.62
2019-05-26T08:18:52.669Z,5.15
2019-05-26T08:23:54.009Z,2.77
2019-05-26T08:26:27.411Z,4.50
2019-05-26T08:31:28.956Z,3.45
2019-05-26T08:36:28.961Z,4.53
2019-05-26T08:41:30.627Z,3.47
2019-05-26T08:44:02.136Z,5.28
2019-05-26T08:46:33.030Z,3.47
2019-05-26T08:49:03.718Z,3.35
2019-05-26T08:54:03.781Z,3.05
2019-05-26T08:59:07.093Z,3.30
2019-05-26T09:01:37.834Z,3.05
2019-05-26T09:04:08.709Z,2.52
2019-05-26T09:06:39.598Z,4.10
2019-05-26T09:09:10.268Z,3.80
2019-05-26T09:14:10.903Z,2.65
2019-05-26T09:16:41.615Z,4.33
2019-05-26T09:21:41.937Z,9.25
2019-05-26T09:24:12.634Z,4.15
2019-05-26T09:29:12.838Z,2.67
2019-05-26T09:34:12.990Z,2.22
2019-05-26T09:39:16.361Z,2.52
2019-05-26T09:41:47.049Z,4.90
2019-05-26T09:44:17.773Z,2.22
2019-05-26T09:46:48.501Z,3.00
2019-05-26T09:49:19.186Z,2.55
2019-05-26T09:54:20.243Z,2.47
2019-05-26T09:56:51.452Z,4.33
2019-05-26T09:59:22.396Z,3.17
2019-05-26T10:01:53.293Z,3.65
2019-05-26T10:04:24.228Z,5.17
2019-05-26T10:06:55.225Z,3.35
2019-05-26T10:09:25.926Z,2.95
2019-05-26T10:11:56.930Z,2.90
2019-05-26T10:14:27.600Z,2.15
2019-05-26T10:16:58.379Z,2.12
2019-05-26T10:19:29.105Z,3.22
2019-05-26T10:24:29.371Z,3.62
2019-05-26T10:27:00.119Z,3.58
2019-05-26T10:29:31.024Z,5.35
2019-05-26T10:32:01.966Z,5.28
2019-05-26T10:34:33.500Z,3.02
2019-05-26T10:37:04.180Z,2.15
2019-05-26T10:39:34.974Z,3.42
2019-05-26T10:42:05.723Z,3.72
2019-05-26T10:44:36.516Z,6.53
2019-05-26T10:47:08.373Z,4.42
2019-05-26T10:49:39.144Z,4.30
2019-05-26T10:52:09.832Z,3.42
2019-05-26T10:54:40.493Z,3.30
2019-05-26T10:59:41.621Z,3.17
2019-05-26T11:02:13.259Z,4.97
2019-05-26T11:07:13.497Z,3.33
2019-05-26T11:09:44.398Z,7.00
2019-05-26T11:12:15.090Z,4.12
2019-05-26T11:17:15.451Z,4.50
2019-05-26T11:19:46.243Z,2.90
2019-05-26T11:22:18.279Z,3.50
2019-05-26T11:24:49.361Z,3.87
2019-05-26T11:27:20.277Z,3.75
2019-05-26T11:29:50.935Z,5.67
2019-05-26T11:36:14.108Z,4.03
2019-05-26T11:37:26.489Z,2.70
2019-05-26T11:39:58.059Z,2.70
2019-05-26T11:42:32.515Z,5.78
2019-05-26T11:45:03.493Z,3.33
2019-05-26T11:47:34.127Z,5.95
2019-05-26T11:50:05.871Z,4.12
2019-05-26T11:53:06.019Z,2.98
2019-05-26T11:55:36.728Z,3.52
2019-05-26T11:58:12.717Z,8.50
2019-05-26T12:00:43.444Z,4.97
2019-05-26T12:03:14.187Z,4.70
2019-05-26T12:05:44.997Z,5.90
2019-05-26T12:08:15.655Z,4.47
2019-05-26T12:10:46.413Z,4.80
2019-05-26T12:13:17.201Z,4.03
2019-05-26T12:15:48.039Z,5.47
2019-05-26T12:18:19.823Z,4.17
2019-05-26T12:20:51.353Z,2.95
2019-05-26T12:23:22.007Z,4.47
2019-05-26T12:28:22.114Z,2.90
2019-05-26T12:30:53.771Z,4.08
2019-05-26T12:33:24.837Z,4.42
2019-05-26T12:35:56.086Z,3.80
2019-05-26T12:38:27.101Z,4.25
2019-05-26T12:40:57.821Z,3.95
2019-05-26T12:43:28.520Z,2.83
2019-05-26T12:45:59.171Z,3.33
2019-05-26T12:48:29.916Z,4.22
2019-05-26T12:51:00.948Z,2.90
2019-05-26T12:53:31.740Z,2.58
2019-05-26T12:56:02.369Z,5.08
2019-05-26T13:01:03.713Z,7.10
2019-05-26T13:03:35.924Z,3.83
2019-05-26T13:06:07.285Z,4.33
2019-05-26T13:08:40.996Z,4.53
2019-05-26T13:11:12.755Z,5.60
2019-05-26T13:13:43.590Z,4.80
2019-05-26T13:16:14.389Z,5.42
2019-05-26T13:18:45.225Z,3.75
2019-05-26T13:21:15.961Z,4.85
2019-05-26T13:23:46.534Z,3.37
2019-05-26T13:28:46.522Z,4.60
2019-05-26T13:33:46.555Z,4.25
2019-05-26T13:36:17.199Z,6.30
2019-05-26T13:38:47.754Z,4.03
2019-05-26T13:43:48.912Z,3.65
2019-05-26T13:48:52.242Z,5.80
2019-05-26T13:51:22.896Z,4.05
2019-05-26T13:53:53.808Z,4.80
2019-05-26T13:56:26.038Z,3.98
2019-05-26T13:58:56.869Z,4.42
2019-05-26T14:01:27.525Z,3.50
2019-05-26T14:03:59.642Z,6.97
2019-05-26T14:09:02.292Z,4.80
2019-05-26T14:11:34.538Z,4.05
2019-05-26T14:14:06.576Z,3.62
2019-05-26T14:16:38.796Z,5.55
2019-05-26T14:19:09.326Z,4.20
2019-05-26T14:21:40.836Z,3.60
2019-05-26T14:26:42.177Z,4.50
2019-05-26T14:29:13.697Z,5.62
2019-05-26T14:31:44.289Z,5.58
2019-05-26T14:34:14.884Z,3.95
2019-05-26T14:39:14.867Z,4.40
2019-05-26T14:41:45.545Z,7.30
2019-05-26T14:44:16.277Z,5.87
2019-05-26T14:49:16.313Z,7.08
2019-05-26T14:51:47.344Z,4.83
2019-05-26T14:54:17.987Z,7.53
2019-05-26T14:59:17.949Z,9.10
2019-05-26T15:01:48.495Z,9.85
2019-05-26T15:04:22.184Z,7.10
2019-05-26T15:06:52.846Z,8.83
2019-05-26T15:09:25.373Z,12.18
2019-05-26T15:11:55.793Z,12.15
2019-05-26T15:16:57.554Z,9.48
2019-05-26T15:19:28.124Z,8.78
2019-05-26T15:21:58.694Z,13.08
2019-05-26T15:24:29.573Z,8.33
2019-05-26T15:27:00.354Z,13.70
2019-05-26T15:32:03.147Z,15.08
2019-05-26T15:34:33.585Z,11.33
2019-05-26T15:37:05.271Z,12.90
2019-05-26T15:42:08.213Z,8.93
2019-05-26T15:44:37.351Z,9.98
2019-05-26T15:47:07.961Z,6.95
2019-05-26T15:52:07.823Z,8.30
2019-05-26T15:54:38.457Z,9.90
2019-05-26T15:57:09.075Z,10.03
2019-05-26T15:59:39.617Z,9.18
2019-05-26T16:02:10.199Z,7.20
2019-05-26T16:04:45.507Z,5.92
2019-05-26T16:07:15.701Z,8.63
2019-05-26T16:09:46.383Z,11.12
2019-05-26T16:12:17.789Z,11.55
2019-05-26T16:14:48.532Z,10.80
2019-05-26T16:19:49.976Z,12.70
2019-05-26T16:22:20.698Z,9.83
2019-05-26T16:27:20.715Z,8.10
2019-05-26T16:29:51.308Z,7.92
2019-05-26T16:32:21.852Z,5.53
2019-05-26T16:37:23.006Z,6.17
2019-05-26T16:39:55.948Z,8.63
2019-05-26T16:42:25.860Z,6.17
2019-05-26T16:44:58.343Z,4.92
2019-05-26T16:47:28.936Z,3.33
2019-05-26T16:52:28.927Z,1.22
2019-05-26T16:57:29.255Z,1.20
2019-05-26T17:00:00.975Z,2.08
2019-05-26T17:05:01.196Z,2.12
2019-05-26T17:10:03.853Z,1.75
2019-05-26T17:12:34.480Z,1.87
2019-05-26T17:15:06.432Z,1.77
2019-05-26T17:17:37.051Z,1.32
2019-05-26T17:20:07.669Z,2.80
2019-05-26T17:22:39.779Z,1.35
2019-05-26T17:27:39.905Z,1.82
2019-05-26T17:30:12.983Z,2.05
2019-05-26T17:32:43.647Z,2.62
2019-05-26T17:35:14.391Z,2.90
2019-05-26T17:37:45.247Z,2.25
2019-05-26T17:40:16.896Z,1.37
2019-05-26T17:42:47.619Z,5.72
2019-05-26T17:47:47.744Z,2.05
2019-05-26T17:50:18.538Z,2.47
2019-05-26T17:52:49.103Z,2.17
2019-05-26T17:55:19.919Z,2.30
2019-05-26T17:57:50.605Z,2.22
2019-05-26T18:02:55.033Z,1.22
2019-05-26T18:05:25.671Z,2.35
2019-05-26T18:10:25.742Z,3.12
2019-05-26T18:12:56.470Z,3.67
2019-05-26T18:15:27.066Z,2.67
2019-05-26T18:17:57.665Z,1.55
2019-05-26T18:22:57.704Z,1.75
2019-05-26T18:27:58.805Z,4.85
2019-05-26T18:30:29.416Z,2.27
2019-05-26T18:35:29.607Z,3.83
2019-05-26T18:40:30.958Z,4.22
2019-05-26T18:48:04.476Z,1.57
2019-05-26T18:50:36.225Z,2.85
2019-05-26T18:53:07.144Z,3.62
2019-05-26T18:55:37.834Z,4.42
2019-05-26T18:58:09.039Z,3.60
2019-05-26T19:00:41.030Z,4.12
2019-05-26T19:03:12.162Z,1.92
2019-05-26T19:05:42.717Z,3.72
2019-05-26T19:08:13.536Z,4.42
2019-05-26T19:10:44.613Z,4.33
2019-05-26T19:13:18.081Z,3.90
2019-05-26T19:15:49.805Z,2.65
2019-05-26T19:18:20.876Z,3.05
2019-05-26T19:20:51.589Z,2.42
2019-05-26T19:25:53.784Z,2.45
2019-05-26T19:28:26.942Z,1.42
2019-05-26T19:30:59.679Z,2.62
2019-05-26T19:33:32.250Z,3.02
2019-05-26T19:36:08.715Z,2.08
2019-05-26T19:38:36.486Z,1.92
2019-05-26T19:41:08.299Z,1.82
2019-05-26T19:43:39.023Z,2.83
2019-05-26T19:46:09.560Z,2.42
2019-05-26T19:49:06.982Z,2.72
2019-05-26T19:54:07.417Z,2.20
2019-05-26T19:56:39.032Z,2.83
2019-05-26T19:59:09.657Z,3.30
2019-05-26T20:04:09.766Z,3.08
2019-05-26T20:09:11.397Z,2.87
2019-05-26T20:11:42.498Z,3.30
2019-05-26T20:14:13.611Z,2.05
2019-05-26T20:16:44.437Z,5.20
2019-05-26T20:19:15.545Z,4.45
2019-05-26T20:21:46.099Z,2.87
2019-05-26T20:24:17.797Z,3.65
2019-05-26T20:26:49.341Z,7.58
2019-05-26T20:29:20.379Z,11.08
2019-05-26T20:31:51.996Z,5.47
2019-05-26T20:34:23.123Z,6.10
2019-05-26T20:36:54.122Z,2.40
2019-05-26T20:39:24.725Z,2.50
2019-05-26T20:44:25.173Z,6.12
2019-05-26T20:49:26.432Z,8.80
2019-05-26T20:51:57.428Z,4.08
2019-05-26T20:54:28.271Z,5.70
2019-05-26T20:59:35.646Z,4.92
2019-05-26T21:02:08.694Z,4.42
2019-05-26T21:04:40.715Z,3.58
2019-05-26T21:07:11.865Z,6.10
2019-05-26T21:09:42.647Z,6.80
2019-05-26T21:14:42.761Z,6.30
2019-05-26T21:19:43.580Z,5.78
2019-05-26T21:22:14.630Z,5.12
2019-05-26T21:24:47.138Z,6.35
2019-05-26T21:27:26.818Z,4.40
2019-05-26T21:29:59.797Z,5.12
2019-05-26T21:32:33.594Z,4.83
2019-05-26T21:35:07.897Z,6.97
2019-05-26T21:37:39.868Z,4.92
2019-05-26T21:40:10.849Z,4.78
2019-05-26T21:42:41.530Z,6.17
2019-05-26T21:47:43.584Z,4.30
2019-05-26T21:50:15.506Z,6.72
2019-05-26T21:52:51.533Z,10.23
2019-05-26T21:55:22.608Z,7.37
2019-05-26T21:57:57.209Z,9.88
2019-05-26T22:00:30.412Z,7.62
2019-05-26T22:03:07.364Z,5.37
2019-05-26T22:05:38.411Z,7.25
2019-05-26T22:08:09.175Z,8.45
2019-05-26T22:13:09.399Z,9.58
2019-05-26T22:18:11.259Z,8.10
2019-05-26T22:20:41.872Z,10.88
2019-05-26T22:23:12.539Z,9.13
2019-05-26T22:28:12.797Z,11.73
2019-05-26T22:33:15.723Z,11.00
2019-05-26T22:35:46.439Z,5.75
2019-05-26T22:40:46.390Z,8.93
2019-05-26T22:43:17.284Z,7.75
2019-05-26T22:45:48.006Z,7.60
2019-05-26T22:50:49.756Z,6.00
2019-05-26T22:53:20.406Z,6.50
2019-05-26T22:55:51.199Z,8.23
2019-05-26T22:58:21.827Z,6.50
2019-05-26T23:00:52.579Z,7.00
2019-05-26T23:05:52.815Z,7.60
2019-05-26T23:10:52.912Z,7.55
2019-05-26T23:13:23.581Z,7.17
2019-05-26T23:15:55.745Z,9.10
2019-05-26T23:18:26.418Z,12.58
2019-05-26T23:23:28.495Z,10.48
2019-05-26T23:25:59.193Z,6.65
2019-05-26T23:30:59.331Z,10.05
2019-05-26T23:33:30.130Z,8.65
2019-05-26T23:38:31.140Z,9.75
2019-05-26T23:41:01.906Z,8.98
2019-05-26T23:46:02.146Z,12.18
2019-05-26T23:51:02.441Z,9.60
2019-05-26T23:56:02.773Z,7.47
2019-05-26T23:58:35.651Z,11.90
